Terminal Aerodrome Forecast
Issued by NWS Greer, SC

Home | Current Version | Previous Version | Text Only | Print | Product List | Glossary On
Versions: 1 2 3 4 5 6 7 8 9 10 11 12 13 14 15
000
FTUS42 KGSP 011740
TAFGSP
TAF
KGSP 011740Z 0118/0218 21009KT P6SM VCSH SCT025
      TEMPO 0118/0120 BKN025
     FM012000 21011KT P6SM VCTS BKN035CB
      TEMPO 0121/0201 3SM -TSRA OVC020CB
     FM020300 21005KT P6SM BKN100
     FM020900 21005KT 6SM BR FEW007 SCT013
     FM021500 22009KT P6SM BKN040=

USA.gov is the U.S. government's official web portal to all federal, state and local government web resources and services.